createdAt,value
2019-02-15T00:03:03.875Z,20.33
2019-02-15T00:08:13.115Z,20.57
2019-02-15T00:13:22.210Z,22.20
2019-02-15T00:18:56.700Z,19.97
2019-02-15T00:24:13.301Z,20.20
2019-02-15T00:29:22.221Z,19.23
2019-02-15T00:34:37.916Z,19.83
2019-02-15T00:39:47.337Z,28.90
2019-02-15T00:44:55.687Z,23.00
2019-02-15T00:50:17.942Z,22.60
2019-02-15T00:55:57.395Z,22.43
2019-02-15T01:01:14.318Z,22.20
2019-02-15T01:07:00.326Z,22.20
2019-02-15T01:12:14.641Z,21.83
2019-02-15T01:17:23.684Z,33.57
2019-02-15T01:22:38.826Z,23.80
2019-02-15T01:27:59.165Z,23.30
2019-02-15T01:33:37.639Z,24.13
2019-02-15T01:39:12.520Z,20.60
2019-02-15T01:44:40.794Z,20.57
2019-02-15T01:49:50.047Z,19.67
2019-02-15T01:55:00.231Z,22.70
2019-02-15T02:00:09.106Z,25.23
2019-02-15T02:05:18.142Z,22.17
2019-02-15T02:10:27.223Z,23.23
2019-02-15T02:15:37.173Z,25.53
2019-02-15T02:20:54.399Z,23.60
2019-02-15T02:26:03.519Z,23.93
2019-02-15T02:31:12.476Z,24.97
2019-02-15T02:36:22.372Z,24.90
2019-02-15T02:41:32.025Z,25.67
2019-02-15T02:46:42.332Z,23.90
2019-02-15T02:51:53.520Z,23.30
2019-02-15T02:57:02.564Z,24.23
2019-02-15T03:02:17.827Z,24.13
2019-02-15T03:07:27.904Z,18.87
2019-02-15T03:12:38.999Z,22.13
2019-02-15T03:17:47.736Z,22.80
2019-02-15T03:23:03.004Z,23.17
2019-02-15T03:28:12.225Z,22.47
2019-02-15T03:33:27.277Z,20.70
2019-02-15T03:39:09.336Z,20.93
2019-02-15T03:44:22.302Z,21.83
2019-02-15T03:49:30.801Z,21.63
2019-02-15T03:54:32.820Z,17.73
2019-02-15T03:59:48.145Z,20.10
2019-02-15T04:04:57.928Z,18.33
2019-02-15T04:10:07.220Z,16.20
2019-02-15T04:15:16.099Z,17.83
2019-02-15T04:20:27.324Z,22.20
2019-02-15T04:25:42.521Z,31.57
2019-02-15T04:30:51.574Z,20.40
2019-02-15T04:36:01.590Z,27.97
2019-02-15T04:41:11.758Z,17.33
2019-02-15T04:46:27.047Z,25.93
2019-02-15T04:51:35.983Z,19.27
2019-02-15T04:56:44.980Z,16.77
2019-02-15T05:02:00.030Z,16.10
2019-02-15T05:07:11.102Z,18.17
2019-02-15T05:12:20.022Z,20.57
2019-02-15T05:17:30.311Z,15.27
2019-02-15T05:22:38.556Z,21.60
2019-02-15T05:27:53.809Z,22.87
2019-02-15T05:33:03.207Z,24.73
2019-02-15T05:38:18.385Z,19.57
2019-02-15T05:43:27.470Z,20.20
2019-02-15T05:48:37.371Z,22.63
2019-02-15T05:53:39.412Z,20.07
2019-02-15T05:58:47.689Z,20.03
2019-02-15T06:03:56.721Z,16.53
2019-02-15T06:09:05.697Z,18.93
2019-02-15T06:14:14.579Z,16.87
2019-02-15T06:19:23.672Z,18.67
2019-02-15T06:24:38.934Z,23.47
2019-02-15T06:29:48.058Z,21.33
2019-02-15T06:34:57.177Z,18.47
2019-02-15T06:40:05.885Z,21.40
2019-02-15T06:45:24.040Z,19.43
2019-02-15T06:50:25.991Z,18.93
2019-02-15T06:55:35.107Z,24.03
2019-02-15T07:01:03.713Z,19.30
2019-02-15T07:06:19.149Z,18.17
2019-02-15T07:11:27.467Z,29.47
2019-02-15T07:16:36.418Z,18.50
2019-02-15T07:21:51.466Z,24.87
2019-02-15T07:27:13.767Z,24.53
2019-02-15T07:32:21.964Z,23.80
2019-02-15T07:37:34.200Z,23.23
2019-02-15T07:42:43.332Z,19.93
2019-02-15T07:47:53.538Z,20.60
2019-02-15T07:53:03.928Z,23.07
2019-02-15T07:58:12.794Z,21.30
2019-02-15T08:03:21.815Z,24.43
2019-02-15T08:08:34.933Z,23.23
2019-02-15T08:13:43.302Z,16.97
2019-02-15T08:18:52.143Z,24.20
2019-02-15T08:24:07.266Z,24.83
2019-02-15T08:29:16.062Z,19.37
2019-02-15T08:34:25.140Z,15.47
2019-02-15T08:39:35.387Z,23.33
2019-02-15T08:44:50.559Z,23.73
2019-02-15T08:49:59.602Z,20.73
2019-02-15T08:55:08.748Z,23.10
2019-02-15T09:00:18.143Z,21.07
2019-02-15T09:22:40.700Z,19.43
2019-02-15T09:28:21.670Z,17.60
2019-02-15T09:38:51.731Z,19.97
2019-02-15T09:44:06.685Z,18.83
2019-02-15T09:49:22.297Z,21.67
2019-02-15T09:54:33.864Z,18.90
2019-02-15T09:59:45.847Z,17.60
2019-02-15T10:04:54.597Z,20.77
2019-02-15T10:10:03.754Z,15.80
2019-02-15T10:15:12.516Z,15.90
2019-02-15T10:20:24.494Z,18.93
2019-02-15T10:25:39.649Z,16.03
2019-02-15T10:30:48.659Z,18.90
2019-02-15T10:35:57.754Z,16.10
2019-02-15T10:41:13.005Z,20.23
2019-02-15T10:46:23.379Z,20.43
2019-02-15T10:51:32.421Z,20.47
2019-02-15T10:56:41.581Z,20.17
2019-02-15T11:01:50.621Z,16.13
2019-02-15T11:07:01.765Z,23.80
2019-02-15T11:12:10.824Z,15.23
2019-02-15T11:17:19.669Z,14.77
2019-02-15T11:22:35.467Z,12.83
2019-02-15T11:27:45.837Z,18.87
2019-02-15T11:32:54.753Z,15.37
2019-02-15T11:38:03.960Z,17.73
2019-02-15T11:43:18.956Z,17.27
2019-02-15T11:48:29.552Z,17.70
2019-02-15T13:00:18.740Z,14.03
2019-02-15T13:05:26.829Z,14.10
2019-02-15T13:10:38.062Z,17.67
2019-02-15T13:15:47.028Z,14.77
2019-02-15T13:20:55.941Z,13.43
2019-02-15T13:26:11.176Z,12.30
2019-02-15T13:31:19.983Z,13.73
2019-02-15T13:36:33.100Z,12.50
2019-02-15T13:41:44.348Z,14.13
2019-02-15T13:46:53.302Z,13.47
2019-02-15T13:52:02.313Z,14.20
2019-02-15T13:57:12.340Z,17.73
2019-02-15T14:02:27.442Z,15.13
2019-02-15T14:07:36.426Z,14.80
2019-02-15T14:12:48.391Z,14.53
2019-02-15T14:17:57.359Z,13.60
2019-02-15T14:23:14.582Z,12.10
2019-02-15T14:28:23.348Z,15.13
2019-02-15T14:33:32.278Z,15.53
2019-02-15T14:38:43.109Z,15.17
2019-02-15T14:43:52.174Z,22.23
2019-02-15T14:49:01.173Z,17.07
2019-02-15T14:54:11.753Z,21.70
2019-02-15T14:59:29.496Z,17.50
2019-02-15T15:04:44.830Z,18.07
2019-02-15T15:09:53.935Z,17.40
2019-02-15T15:15:02.998Z,19.47
2019-02-15T15:20:14.165Z,21.43
2019-02-15T15:25:31.227Z,18.27
2019-02-15T15:30:40.033Z,15.70
2019-02-15T15:35:49.036Z,18.13
2019-02-15T15:41:06.891Z,17.57
2019-02-15T15:46:17.586Z,20.77
2019-02-15T15:51:27.791Z,15.43
2019-02-15T15:56:42.863Z,18.33
2019-02-15T16:01:59.037Z,16.27
2019-02-15T16:07:07.785Z,26.77
2019-02-15T16:12:16.907Z,20.90
2019-02-15T16:17:25.900Z,22.30
2019-02-15T16:22:35.744Z,17.47
2019-02-15T16:27:54.945Z,15.27
2019-02-15T16:33:03.979Z,16.00
2019-02-15T16:38:12.928Z,20.13
2019-02-15T16:43:22.027Z,21.33
2019-02-15T16:48:41.890Z,22.53
2019-02-15T16:53:46.368Z,26.03
2019-02-15T16:58:55.154Z,22.13
2019-02-15T17:04:10.033Z,21.53
2019-02-15T17:09:22.872Z,19.90
2019-02-15T17:14:31.884Z,17.70
2019-02-15T17:19:40.874Z,19.17
2019-02-15T17:24:52.613Z,22.50
2019-02-15T17:30:08.138Z,21.27
2019-02-15T17:35:16.815Z,26.43
2019-02-15T17:40:25.848Z,28.03
2019-02-15T17:45:33.969Z,22.83
2019-02-15T17:50:44.027Z,25.67
2019-02-15T17:55:53.065Z,21.30
2019-02-15T18:01:01.968Z,23.43
2019-02-15T18:06:05.591Z,24.97
2019-02-15T18:11:14.931Z,27.17
2019-02-15T18:16:24.881Z,33.40
2019-02-15T18:21:41.053Z,26.13
2019-02-15T18:26:50.373Z,27.30
2019-02-15T18:32:01.341Z,27.37
2019-02-15T18:37:13.379Z,30.57
2019-02-15T18:42:22.545Z,26.13
2019-02-15T18:47:31.665Z,26.00
2019-02-15T18:52:40.452Z,29.60
2019-02-15T18:57:49.574Z,27.73
2019-02-15T19:02:58.474Z,29.27
2019-02-15T19:08:07.410Z,25.43
2019-02-15T19:13:16.508Z,30.87
2019-02-15T19:18:25.381Z,26.03
2019-02-15T19:23:54.983Z,31.93
2019-02-15T19:29:04.246Z,28.73
2019-02-15T19:34:14.387Z,33.40
2019-02-15T19:39:23.229Z,37.47
2019-02-15T19:44:32.229Z,39.50
2019-02-15T19:49:40.504Z,31.50
2019-02-15T19:54:55.745Z,29.93
2019-02-15T20:00:04.758Z,29.47
2019-02-15T20:05:20.086Z,33.60
2019-02-15T20:10:30.042Z,29.33
2019-02-15T20:15:39.087Z,33.40
2019-02-15T20:20:48.205Z,29.70
2019-02-15T20:26:03.327Z,39.50
2019-02-15T20:31:12.295Z,32.37
2019-02-15T20:36:22.439Z,34.43
2019-02-15T20:41:33.325Z,37.70
2019-02-15T20:46:42.322Z,36.43
2019-02-15T20:51:51.205Z,33.67
2019-02-15T20:57:00.989Z,33.60
2019-02-15T21:02:16.794Z,34.03
2019-02-15T21:07:26.007Z,32.13
2019-02-15T21:12:35.052Z,33.03
2019-02-15T21:17:43.948Z,34.07
2019-02-15T21:22:59.137Z,35.57
2019-02-15T21:28:08.194Z,31.93
2019-02-15T21:33:16.930Z,34.20
2019-02-15T21:38:25.937Z,34.03
2019-02-15T21:43:35.082Z,35.03
2019-02-15T21:48:44.245Z,37.40
2019-02-15T21:53:53.094Z,35.97
2019-02-15T21:59:02.027Z,32.83
2019-02-15T22:04:16.974Z,36.77
2019-02-15T22:09:26.113Z,38.67
2019-02-15T22:14:34.766Z,32.57
2019-02-15T22:19:47.138Z,35.87
2019-02-15T22:25:03.871Z,33.53
2019-02-15T22:30:17.721Z,31.57
2019-02-15T22:35:26.678Z,34.70
2019-02-15T22:40:57.683Z,33.67
2019-02-15T22:46:12.816Z,35.03
2019-02-15T22:51:21.866Z,37.87
2019-02-15T22:56:32.024Z,39.07
2019-02-15T23:01:48.107Z,32.10
2019-02-15T23:06:59.138Z,34.13
2019-02-15T23:12:03.367Z,28.67
2019-02-15T23:17:12.447Z,37.20
2019-02-15T23:22:21.512Z,39.77
2019-02-15T23:27:36.830Z,33.10
2019-02-15T23:32:45.784Z,35.23
2019-02-15T23:37:54.014Z,33.67
2019-02-15T23:43:04.446Z,35.87
2019-02-15T23:48:19.672Z,34.13
2019-02-15T23:53:30.818Z,33.53
2019-02-15T23:58:39.968Z,40.13
